Panda — PBCS — position and weather

sailwx.info

Track history (hours):
 
Tides and Currents Weather Stations Pressure Air Temp Water Temp Dewpoint Dewpoint Depression Visibility Wind Speed Wind Dir Waves Ship Positions

Panda

Last reported at 2014-Oct-01 07:25 UTC. Time now 2014-Oct-01 10:18 UTC.
Position N 43°01' E 003°03'.

Length 89 m; draft 3 m.

Type: Cargo ship. MMSI: 245014000.

Date/timePositionNaut miles runAvg speedWind from/ knotsBaromVisibWave heightAir tempDewpointWater temp
2014-Oct-01 07:25N 43°01' E 003°03'0 0.0
2014-Oct-01 06:30N 43°01' E 003°03'0 0.0
2014-Oct-01 05:14N 43°01' E 003°03'0 0.0
2014-Oct-01 04:33N 43°01' E 003°03'0 0.0
2014-Oct-01 02:30N 43°01' E 003°03'0 0.0
2014-Oct-01 01:31N 43°01' E 003°03'0 0.0
2014-Oct-01 00:30N 43°01' E 003°03'0 0.0
2014-Sep-30 19:18N 43°01' E 003°03'0 0.0
2014-Sep-30 17:07N 43°01' E 003°03'0 0.0
2014-Sep-30 15:12N 43°01' E 003°03'0 0.0
2014-Sep-30 06:33N 43°01' E 003°03'5 4.2
2014-Sep-30 05:21N 42°60' E 003°10'50 7.2
2014-Sep-29 22:26N 43°12' E 004°16'7 7.5
2014-Sep-29 21:33N 43°14' E 004°25'8 7.9
2014-Sep-29 20:29N 43°16' E 004°36'8 9.1
2014-Sep-29 19:33N 43°18' E 004°47'8 8.1
2014-Sep-29 18:33N 43°23' E 004°55'5 4.6
2014-Sep-29 17:28N 43°23' E 004°49'6 6.8
2014-Sep-29 16:33N 43°29' E 004°45'6 0.2
2014-Sep-28 08:33N 43°23' E 004°48'7 6.6
2014-Sep-28 07:33N 43°23' E 004°57'7 6.6
2014-Sep-28 06:33N 43°18' E 005°03'29 8.9
2014-Sep-28 03:19N 43°00' E 005°35'810.0
2014-Sep-28 02:33N 42°56' E 005°43'1010.5
2014-Sep-28 01:33N 42°50' E 005°55'1010.5
2014-Sep-28 00:33N 42°45' E 006°07'2010.0
2014-Sep-27 22:33N 42°34' E 006°30'28 9.3
2014-Sep-27 19:32N 42°18' E 007°02'  
Track history (hours):
 
Tides and Currents Weather Stations Pressure Air Temp Water Temp Dewpoint Dewpoint Depression Visibility Wind Speed Wind Dir Waves Ship Positions

Panda

Last reported at 2014-Oct-01 07:25 UTC. Time now 2014-Oct-01 10:18 UTC.
Position N 43°01' E 003°03'.

Length 89 m; draft 3 m.

Type: Cargo ship. MMSI: 245014000.

Date/timePositionNaut miles runAvg speedWind from/ knotsBaromVisibWave heightAir tempDewpointWater temp
2014-Oct-01 07:25N 43°01' E 003°03'0 0.0
2014-Oct-01 06:30N 43°01' E 003°03'0 0.0
2014-Oct-01 05:14N 43°01' E 003°03'0 0.0
2014-Oct-01 04:33N 43°01' E 003°03'0 0.0
2014-Oct-01 02:30N 43°01' E 003°03'0 0.0
2014-Oct-01 01:31N 43°01' E 003°03'0 0.0
2014-Oct-01 00:30N 43°01' E 003°03'0 0.0
2014-Sep-30 19:18N 43°01' E 003°03'0 0.0
2014-Sep-30 17:07N 43°01' E 003°03'0 0.0
2014-Sep-30 15:12N 43°01' E 003°03'0 0.0
2014-Sep-30 06:33N 43°01' E 003°03'5 4.2
2014-Sep-30 05:21N 42°60' E 003°10'50 7.2
2014-Sep-29 22:26N 43°12' E 004°16'7 7.5
2014-Sep-29 21:33N 43°14' E 004°25'8 7.9
2014-Sep-29 20:29N 43°16' E 004°36'8 9.1
2014-Sep-29 19:33N 43°18' E 004°47'8 8.1
2014-Sep-29 18:33N 43°23' E 004°55'5 4.6
2014-Sep-29 17:28N 43°23' E 004°49'6 6.8
2014-Sep-29 16:33N 43°29' E 004°45'6 0.2
2014-Sep-28 08:33N 43°23' E 004°48'7 6.6
2014-Sep-28 07:33N 43°23' E 004°57'7 6.6
2014-Sep-28 06:33N 43°18' E 005°03'29 8.9
2014-Sep-28 03:19N 43°00' E 005°35'810.0
2014-Sep-28 02:33N 42°56' E 005°43'1010.5
2014-Sep-28 01:33N 42°50' E 005°55'1010.5
2014-Sep-28 00:33N 42°45' E 006°07'2010.0
2014-Sep-27 22:33N 42°34' E 006°30'28 9.3
2014-Sep-27 19:32N 42°18' E 007°02'  

Dump ship's entire track history